createdAt,value
2018-10-21T00:02:22.456Z,83.10
2018-10-21T00:04:50.745Z,83.10
2018-10-21T00:07:19.137Z,83.00
2018-10-21T00:09:47.469Z,83.20
2018-10-21T00:12:15.806Z,83.20
2018-10-21T00:14:44.115Z,83.40
2018-10-21T00:17:12.463Z,83.60
2018-10-21T00:19:40.778Z,83.80
2018-10-21T00:22:09.109Z,83.90
2018-10-21T00:24:37.418Z,84.30
2018-10-21T00:27:06.320Z,84.40
2018-10-21T00:29:34.659Z,84.60
2018-10-21T00:32:03.083Z,84.70
2018-10-21T00:34:31.394Z,84.80
2018-10-21T00:36:59.727Z,84.90
2018-10-21T00:39:28.028Z,85.20
2018-10-21T00:41:56.369Z,85.30
2018-10-21T00:44:24.695Z,85.40
2018-10-21T00:46:53.046Z,85.50
2018-10-21T00:49:21.354Z,85.70
2018-10-21T00:51:49.683Z,86.50
2018-10-21T00:54:18.000Z,85.90
2018-10-21T00:56:47.355Z,86.00
2018-10-21T00:59:15.824Z,86.20
2018-10-21T01:01:44.186Z,86.30
2018-10-21T01:04:12.522Z,87.20
2018-10-21T01:06:40.865Z,86.60
2018-10-21T01:09:11.668Z,86.60
2018-10-21T01:11:41.110Z,86.70
2018-10-21T01:14:09.615Z,86.80
2018-10-21T01:16:37.946Z,86.90
2018-10-21T01:19:06.842Z,86.80
2018-10-21T01:21:35.646Z,86.90
2018-10-21T01:24:03.962Z,86.90
2018-10-21T01:26:32.337Z,86.90
2018-10-21T01:29:00.656Z,87.70
2018-10-21T01:31:28.992Z,87.00
2018-10-21T01:33:57.316Z,87.00
2018-10-21T01:36:25.997Z,87.00
2018-10-21T01:38:54.019Z,87.10
2018-10-21T01:41:22.341Z,87.10
2018-10-21T01:43:50.691Z,87.20
2018-10-21T01:46:19.054Z,87.30
2018-10-21T01:48:47.377Z,88.00
2018-10-21T01:51:15.804Z,87.10
2018-10-21T01:53:44.049Z,87.10
2018-10-21T01:56:12.356Z,87.00
2018-10-21T01:58:40.681Z,87.00
2018-10-21T02:01:08.985Z,87.10
2018-10-21T02:03:37.326Z,87.00
2018-10-21T02:06:05.782Z,87.10
2018-10-21T02:08:34.136Z,87.30
2018-10-21T02:11:02.442Z,87.50
2018-10-21T02:13:30.780Z,87.70
2018-10-21T02:15:59.098Z,87.80
2018-10-21T02:18:27.433Z,87.80
2018-10-21T02:20:55.746Z,87.80
2018-10-21T02:23:24.091Z,87.80
2018-10-21T02:25:52.426Z,87.80
2018-10-21T02:28:20.763Z,87.70
2018-10-21T02:30:49.061Z,87.50
2018-10-21T02:33:17.439Z,87.50
2018-10-21T02:35:45.744Z,87.50
2018-10-21T02:38:14.096Z,87.40
2018-10-21T02:41:55.666Z,87.40
2018-10-21T02:44:24.429Z,88.00
2018-10-21T02:46:54.040Z,87.30
2018-10-21T02:49:22.810Z,87.20
2018-10-21T02:51:56.539Z,87.20
2018-10-21T02:54:26.024Z,87.30
2018-10-21T02:56:54.601Z,87.30
2018-10-21T02:59:23.422Z,87.50
2018-10-21T03:01:51.758Z,87.50
2018-10-21T03:04:20.252Z,87.50
2018-10-21T03:06:48.761Z,87.70
2018-10-21T03:09:17.105Z,87.60
2018-10-21T03:11:45.437Z,87.50
2018-10-21T03:14:13.820Z,87.30
2018-10-21T03:16:42.133Z,87.20
2018-10-21T03:19:10.478Z,86.90
2018-10-21T03:21:38.802Z,87.30
2018-10-21T03:24:07.140Z,87.30
2018-10-21T03:26:35.444Z,87.20
2018-10-21T03:29:03.784Z,87.30
2018-10-21T03:31:32.098Z,88.20
2018-10-21T03:34:00.674Z,87.40
2018-10-21T03:36:28.756Z,87.00
2018-10-21T03:38:57.131Z,87.80
2018-10-21T03:41:25.437Z,87.80
2018-10-21T03:43:53.778Z,87.90
2018-10-21T03:46:22.100Z,87.80
2018-10-21T03:48:50.602Z,87.80
2018-10-21T03:51:18.914Z,88.00
2018-10-21T03:53:47.240Z,88.20
2018-10-21T03:56:15.546Z,88.20
2018-10-21T03:58:43.869Z,88.50
2018-10-21T04:01:12.192Z,88.60
2018-10-21T04:03:40.513Z,88.70
2018-10-21T04:06:08.834Z,88.90
2018-10-21T04:08:37.169Z,89.10
2018-10-21T04:11:05.601Z,89.30
2018-10-21T04:13:33.933Z,89.40
2018-10-21T04:16:02.265Z,89.50
2018-10-21T04:18:30.609Z,89.50
2018-10-21T04:20:58.902Z,89.90
2018-10-21T04:23:27.220Z,90.00
2018-10-21T04:25:55.530Z,90.00
2018-10-21T04:28:23.850Z,90.00
2018-10-21T04:30:52.162Z,90.10
2018-10-21T04:33:52.009Z,90.10
2018-10-21T04:36:26.130Z,90.20
2018-10-21T04:40:10.644Z,90.20
2018-10-21T04:42:38.937Z,90.20
2018-10-21T04:45:07.941Z,90.20
2018-10-21T04:47:36.277Z,90.30
2018-10-21T04:50:04.901Z,90.40
2018-10-21T04:52:33.800Z,90.40
2018-10-21T04:55:20.845Z,90.40
2018-10-21T04:57:49.162Z,90.40
2018-10-21T05:00:19.726Z,90.50
2018-10-21T05:02:48.055Z,90.60
2018-10-21T05:05:16.682Z,90.60
2018-10-21T05:07:45.029Z,90.60
2018-10-21T05:10:21.249Z,90.70
2018-10-21T05:12:49.580Z,90.60
2018-10-21T05:15:17.910Z,90.90
2018-10-21T05:17:46.219Z,91.20
2018-10-21T05:20:14.759Z,91.30
2018-10-21T05:22:43.149Z,91.30
2018-10-21T05:25:12.034Z,91.30
2018-10-21T05:27:40.390Z,91.40
2018-10-21T05:30:09.708Z,91.40
2018-10-21T05:32:38.016Z,91.40
2018-10-21T05:35:08.089Z,91.50
2018-10-21T05:37:36.771Z,91.50
2018-10-21T05:40:05.990Z,91.50
2018-10-21T05:42:34.294Z,91.70
2018-10-21T05:45:02.615Z,91.60
2018-10-21T05:47:38.267Z,91.60
2018-10-21T05:50:07.578Z,91.70
2018-10-21T05:52:35.945Z,91.70
2018-10-21T05:55:04.282Z,91.70
2018-10-21T05:57:32.586Z,91.70
2018-10-21T06:00:00.909Z,91.70
2018-10-21T06:02:29.225Z,91.70
2018-10-21T06:04:57.585Z,91.70
2018-10-21T06:07:25.929Z,91.70
2018-10-21T06:09:54.282Z,91.70
2018-10-21T06:12:22.583Z,91.70
2018-10-21T06:14:51.284Z,91.70
2018-10-21T06:17:29.447Z,91.70
2018-10-21T06:20:00.632Z,91.80
2018-10-21T06:22:33.225Z,91.80
2018-10-21T06:25:01.541Z,91.90
2018-10-21T06:27:29.871Z,91.90
2018-10-21T06:29:58.188Z,92.10
2018-10-21T06:32:26.496Z,92.10
2018-10-21T06:34:54.825Z,92.20
2018-10-21T06:37:23.157Z,92.30
2018-10-21T06:39:51.486Z,92.40
2018-10-21T06:42:19.810Z,92.50
2018-10-21T06:44:48.136Z,92.60
2018-10-21T06:47:16.681Z,92.70
2018-10-21T06:49:45.025Z,92.70
2018-10-21T06:52:13.433Z,92.80
2018-10-21T06:54:41.764Z,92.80
2018-10-21T06:57:10.180Z,92.80
2018-10-21T06:59:38.448Z,92.80
2018-10-21T07:02:06.805Z,92.90
2018-10-21T07:04:35.193Z,93.00
2018-10-21T07:07:03.493Z,93.00
2018-10-21T07:09:31.865Z,93.00
2018-10-21T07:12:00.175Z,93.00
2018-10-21T07:14:28.493Z,93.00
2018-10-21T07:16:56.844Z,93.00
2018-10-21T07:19:25.181Z,93.10
2018-10-21T07:21:53.512Z,93.20
2018-10-21T07:24:21.917Z,93.30
2018-10-21T07:26:50.221Z,93.30
2018-10-21T07:29:18.566Z,93.30
2018-10-21T07:31:46.872Z,93.40
2018-10-21T07:34:15.260Z,93.50
2018-10-21T07:36:43.589Z,93.60
2018-10-21T07:39:12.136Z,93.50
2018-10-21T07:41:40.471Z,93.50
2018-10-21T07:44:08.809Z,93.50
2018-10-21T07:46:37.138Z,93.50
2018-10-21T07:49:05.512Z,93.40
2018-10-21T07:51:34.022Z,93.40
2018-10-21T07:54:02.390Z,93.70
2018-10-21T07:56:30.718Z,93.30
2018-10-21T07:58:59.064Z,93.40
2018-10-21T08:01:27.447Z,93.50
2018-10-21T08:03:55.837Z,93.50
2018-10-21T08:06:36.589Z,93.50
2018-10-21T08:09:09.592Z,93.50
2018-10-21T08:11:37.954Z,93.50
2018-10-21T08:14:06.297Z,93.30
2018-10-21T08:16:34.649Z,93.30
2018-10-21T08:19:02.972Z,93.50
2018-10-21T08:21:31.323Z,93.00
2018-10-21T08:23:59.649Z,92.70
2018-10-21T08:26:27.988Z,92.50
2018-10-21T08:28:56.303Z,92.30
2018-10-21T08:31:24.642Z,92.30
2018-10-21T08:33:52.955Z,92.00
2018-10-21T08:36:21.293Z,91.90
2018-10-21T08:38:49.600Z,91.90
2018-10-21T08:41:18.744Z,91.90
2018-10-21T08:43:47.065Z,92.20
2018-10-21T08:46:15.497Z,91.80
2018-10-21T08:48:43.764Z,91.70
2018-10-21T08:51:12.104Z,91.60
2018-10-21T08:53:40.451Z,91.50
2018-10-21T08:56:08.803Z,91.50
2018-10-21T08:58:37.123Z,91.50
2018-10-21T09:01:05.509Z,91.30
2018-10-21T09:03:33.811Z,91.50
2018-10-21T09:06:02.147Z,90.90
2018-10-21T09:08:30.453Z,90.90
2018-10-21T09:10:58.855Z,90.80
2018-10-21T09:13:27.135Z,90.80
2018-10-21T09:15:55.513Z,90.70
2018-10-21T09:18:23.795Z,90.50
2018-10-21T09:20:52.120Z,90.50
2018-10-21T09:23:20.428Z,90.60
2018-10-21T09:25:48.767Z,90.50
2018-10-21T09:28:17.199Z,90.30
2018-10-21T09:30:45.551Z,90.30
2018-10-21T09:33:13.859Z,90.00
2018-10-21T09:35:42.209Z,90.00
2018-10-21T09:38:10.512Z,89.90
2018-10-21T09:40:38.845Z,89.20
2018-10-21T09:43:07.208Z,88.10
2018-10-21T09:45:35.591Z,88.00
2018-10-21T09:48:03.909Z,87.60
2018-10-21T09:50:32.251Z,87.30
2018-10-21T09:53:00.556Z,87.80
2018-10-21T09:55:28.885Z,86.90
2018-10-21T09:57:57.270Z,86.10
2018-10-21T10:00:30.942Z,85.70
2018-10-21T10:03:03.085Z,85.80
2018-10-21T10:05:31.450Z,85.20
2018-10-21T10:07:59.768Z,85.00
2018-10-21T10:10:28.093Z,84.90
2018-10-21T10:12:56.411Z,83.70
2018-10-21T10:15:24.849Z,82.40
2018-10-21T10:17:53.285Z,82.30
2018-10-21T10:20:21.713Z,82.40
2018-10-21T10:22:50.019Z,81.70
2018-10-21T10:25:18.472Z,82.10
2018-10-21T10:27:46.705Z,81.00
2018-10-21T10:30:15.069Z,80.90
2018-10-21T10:32:44.143Z,80.60
2018-10-21T10:35:13.437Z,80.60
2018-10-21T10:37:42.157Z,80.30
2018-10-21T10:40:12.012Z,80.30
2018-10-21T10:42:40.468Z,79.80
2018-10-21T10:45:08.912Z,79.40
2018-10-21T10:47:37.845Z,79.10
2018-10-21T10:50:07.470Z,78.60
2018-10-21T10:52:36.100Z,78.80
2018-10-21T10:55:04.742Z,78.60
2018-10-21T10:57:33.122Z,78.90
2018-10-21T11:00:01.532Z,78.70
2018-10-21T11:02:29.780Z,78.30
2018-10-21T11:04:58.099Z,77.50
2018-10-21T11:07:26.429Z,77.80
2018-10-21T11:09:54.748Z,76.30
2018-10-21T11:12:23.133Z,76.30
2018-10-21T11:14:51.441Z,75.70
2018-10-21T11:17:19.993Z,74.80
2018-10-21T11:19:48.303Z,74.10
2018-10-21T11:22:16.687Z,74.10
2018-10-21T11:24:48.072Z,74.60
2018-10-21T11:27:17.188Z,74.40
2018-10-21T11:29:46.273Z,74.10
2018-10-21T11:32:21.238Z,74.40
2018-10-21T11:34:49.549Z,72.20
2018-10-21T11:37:17.983Z,71.80
2018-10-21T11:39:46.230Z,71.60
2018-10-21T11:42:14.569Z,70.00
2018-10-21T11:44:42.893Z,70.20
2018-10-21T11:47:11.311Z,70.80
2018-10-21T11:49:39.627Z,70.10
2018-10-21T11:52:08.058Z,69.60
2018-10-21T11:54:36.318Z,70.10
2018-10-21T11:57:05.410Z,69.60
2018-10-21T11:59:33.777Z,69.30
2018-10-21T12:02:02.124Z,69.20
2018-10-21T12:04:30.441Z,68.30
2018-10-21T12:06:58.830Z,68.30
2018-10-21T12:09:27.125Z,68.70
2018-10-21T12:11:55.448Z,69.10
2018-10-21T12:14:23.757Z,69.00
2018-10-21T12:16:52.083Z,69.60
2018-10-21T12:19:20.392Z,69.10
2018-10-21T12:21:48.721Z,69.10
2018-10-21T12:24:17.053Z,68.70
2018-10-21T12:26:45.379Z,68.40
2018-10-21T12:29:13.718Z,68.50
2018-10-21T12:31:42.040Z,68.40
2018-10-21T12:34:10.391Z,68.40
2018-10-21T12:36:38.709Z,67.80
2018-10-21T12:39:09.268Z,67.00
2018-10-21T12:41:37.767Z,66.90
2018-10-21T12:44:06.070Z,66.80
2018-10-21T12:46:34.423Z,65.90
2018-10-21T12:49:02.747Z,65.90
2018-10-21T12:51:31.077Z,65.60
2018-10-21T12:53:59.435Z,64.80
2018-10-21T12:56:27.789Z,62.70
2018-10-21T12:58:56.100Z,62.20
2018-10-21T13:01:24.441Z,61.10
2018-10-21T13:03:52.786Z,60.00
2018-10-21T13:06:21.089Z,59.50
2018-10-21T13:08:49.424Z,59.20
2018-10-21T13:11:17.742Z,59.20
2018-10-21T13:13:46.073Z,58.80
2018-10-21T13:16:14.426Z,59.60
2018-10-21T13:18:42.746Z,59.90
2018-10-21T13:21:11.060Z,59.60
2018-10-21T13:23:39.401Z,59.50
2018-10-21T13:26:07.714Z,59.10
2018-10-21T13:28:36.059Z,58.90
2018-10-21T13:31:04.436Z,58.90
2018-10-21T13:33:32.749Z,58.70
2018-10-21T13:36:01.112Z,58.60
2018-10-21T13:38:29.540Z,57.70
2018-10-21T13:40:57.844Z,58.20
2018-10-21T13:43:26.180Z,57.40
2018-10-21T13:45:54.605Z,58.00
2018-10-21T13:48:22.899Z,58.20
2018-10-21T13:50:51.222Z,58.20
2018-10-21T13:53:19.596Z,58.20
2018-10-21T13:55:47.907Z,57.00
2018-10-21T13:58:16.394Z,57.30
2018-10-21T14:00:44.834Z,58.00
2018-10-21T14:03:13.033Z,58.20
2018-10-21T14:05:41.341Z,58.50
2018-10-21T14:08:09.765Z,58.60
2018-10-21T14:10:38.070Z,58.80
2018-10-21T14:13:06.764Z,58.40
2018-10-21T14:15:35.063Z,58.70
2018-10-21T14:18:03.397Z,58.70
2018-10-21T14:20:31.718Z,58.70
2018-10-21T14:23:00.128Z,58.70
2018-10-21T14:25:28.505Z,58.40
2018-10-21T14:27:56.847Z,58.10
2018-10-21T14:30:25.199Z,57.60
2018-10-21T14:32:53.553Z,57.50
2018-10-21T14:35:21.868Z,57.10
2018-10-21T14:37:50.316Z,57.00
2018-10-21T14:40:18.653Z,56.90
2018-10-21T14:42:46.985Z,57.10
2018-10-21T14:45:15.351Z,57.00
2018-10-21T14:47:43.705Z,57.10
2018-10-21T14:50:12.625Z,57.20
2018-10-21T14:52:40.949Z,57.10
2018-10-21T14:55:10.281Z,57.30
2018-10-21T14:57:38.813Z,57.60
2018-10-21T15:00:09.056Z,57.90
2018-10-21T15:02:37.407Z,58.20
2018-10-21T15:05:08.121Z,58.60
2018-10-21T15:07:36.449Z,59.00
2018-10-21T15:10:06.058Z,59.30
2018-10-21T15:12:34.361Z,59.60
2018-10-21T15:15:02.670Z,59.50
2018-10-21T15:17:31.016Z,59.40
2018-10-21T15:19:59.361Z,59.50
2018-10-21T15:22:27.669Z,59.40
2018-10-21T15:24:56.011Z,59.60
2018-10-21T15:27:24.329Z,59.90
2018-10-21T15:29:52.656Z,59.90
2018-10-21T15:32:21.085Z,60.20
2018-10-21T15:34:49.475Z,61.00
2018-10-21T15:37:17.758Z,61.60
2018-10-21T15:39:46.147Z,62.00
2018-10-21T15:42:14.470Z,62.50
2018-10-21T15:44:42.805Z,62.80
2018-10-21T15:47:11.131Z,63.10
2018-10-21T15:49:39.465Z,63.40
2018-10-21T15:52:07.795Z,63.70
2018-10-21T15:54:36.143Z,64.10
2018-10-21T15:57:04.464Z,64.50
2018-10-21T15:59:32.792Z,64.80
2018-10-21T16:02:01.148Z,65.30
2018-10-21T16:04:29.475Z,65.70
2018-10-21T16:06:57.802Z,66.00
2018-10-21T16:09:26.135Z,66.30
2018-10-21T16:11:54.454Z,66.50
2018-10-21T16:14:22.837Z,66.90
2018-10-21T16:16:51.125Z,67.10
2018-10-21T16:19:19.457Z,67.40
2018-10-21T16:21:48.218Z,67.70
2018-10-21T16:24:16.556Z,67.90
2018-10-21T16:26:44.865Z,68.00
2018-10-21T16:29:13.196Z,68.30
2018-10-21T16:31:41.553Z,68.30
2018-10-21T16:34:09.933Z,68.90
2018-10-21T16:36:38.198Z,68.90
2018-10-21T16:39:08.632Z,69.10
2018-10-21T16:41:36.897Z,69.10
2018-10-21T16:44:05.257Z,69.20
2018-10-21T16:46:33.580Z,69.50
2018-10-21T16:49:01.901Z,69.70
2018-10-21T16:51:30.291Z,70.10
2018-10-21T16:53:58.590Z,70.40
2018-10-21T16:56:26.916Z,70.60
2018-10-21T16:58:55.242Z,70.80
2018-10-21T17:01:23.553Z,71.00
2018-10-21T17:03:51.885Z,71.20
2018-10-21T17:06:20.192Z,71.50
2018-10-21T17:08:48.597Z,71.70
2018-10-21T17:11:17.028Z,72.00
2018-10-21T17:13:45.306Z,72.20
2018-10-21T17:16:13.747Z,72.50
2018-10-21T17:18:42.036Z,72.40
2018-10-21T17:21:10.337Z,72.60
2018-10-21T17:23:38.680Z,72.90
2018-10-21T17:26:06.997Z,73.10
2018-10-21T17:28:35.341Z,73.40
2018-10-21T17:31:03.680Z,73.50
2018-10-21T17:33:31.997Z,73.70
2018-10-21T17:36:00.382Z,74.00
2018-10-21T17:38:28.697Z,74.30
2018-10-21T17:40:57.021Z,74.30
2018-10-21T17:43:25.325Z,74.60
2018-10-21T17:45:53.670Z,74.70
2018-10-21T17:48:21.977Z,74.80
2018-10-21T17:50:50.295Z,75.00
2018-10-21T17:53:18.602Z,75.10
2018-10-21T17:55:46.930Z,75.40
2018-10-21T17:58:15.327Z,75.60
2018-10-21T18:00:43.601Z,75.80
2018-10-21T18:03:11.903Z,75.90
2018-10-21T18:05:40.227Z,76.00
2018-10-21T18:08:08.536Z,76.80
2018-10-21T18:10:36.865Z,76.10
2018-10-21T18:13:05.264Z,76.90
2018-10-21T18:15:33.598Z,76.30
2018-10-21T18:18:01.912Z,76.30
2018-10-21T18:20:30.297Z,76.50
2018-10-21T18:22:58.590Z,76.60
2018-10-21T18:25:26.924Z,76.70
2018-10-21T18:27:55.248Z,76.80
2018-10-21T18:30:23.601Z,76.90
2018-10-21T18:32:52.043Z,77.10
2018-10-21T18:35:20.372Z,77.20
2018-10-21T18:37:48.690Z,78.00
2018-10-21T18:40:17.123Z,77.30
2018-10-21T18:42:45.453Z,77.50
2018-10-21T18:45:14.686Z,77.60
2018-10-21T18:47:43.960Z,77.70
2018-10-21T18:50:13.932Z,77.70
2018-10-21T18:52:42.268Z,77.80
2018-10-21T18:55:11.277Z,77.80
2018-10-21T18:57:39.631Z,78.00
2018-10-21T19:00:10.997Z,78.10
2018-10-21T19:02:39.300Z,78.20
2018-10-21T19:05:08.162Z,78.20
2018-10-21T19:07:36.831Z,78.20
2018-10-21T19:10:06.733Z,78.20
2018-10-21T19:12:35.009Z,78.10
2018-10-21T19:15:03.373Z,78.10
2018-10-21T19:17:31.695Z,78.80
2018-10-21T19:20:00.233Z,78.30
2018-10-21T19:22:28.553Z,78.40
2018-10-21T19:24:56.914Z,78.60
2018-10-21T19:27:25.226Z,78.60
2018-10-21T19:29:53.572Z,78.70
2018-10-21T19:32:21.914Z,78.90
2018-10-21T19:34:50.261Z,79.00
2018-10-21T19:37:18.588Z,79.10
2018-10-21T19:39:46.963Z,79.30
2018-10-21T19:42:15.296Z,79.40
2018-10-21T19:44:43.605Z,79.50
2018-10-21T19:47:11.920Z,79.50
2018-10-21T19:49:40.425Z,79.50
2018-10-21T19:52:08.817Z,79.60
2018-10-21T19:54:37.057Z,79.70
2018-10-21T19:57:05.391Z,79.50
2018-10-21T19:59:33.704Z,79.70
2018-10-21T20:02:02.043Z,79.70
2018-10-21T20:04:30.350Z,79.90
2018-10-21T20:06:58.743Z,80.10
2018-10-21T20:09:27.016Z,81.00
2018-10-21T20:11:55.374Z,80.30
2018-10-21T20:14:23.665Z,80.30
2018-10-21T20:16:51.992Z,80.30
2018-10-21T20:19:20.297Z,80.20
2018-10-21T20:21:48.711Z,80.10
2018-10-21T20:24:23.581Z,80.00
2018-10-21T20:26:51.910Z,79.90
2018-10-21T20:29:20.213Z,80.00
2018-10-21T20:31:48.528Z,80.00
2018-10-21T20:34:16.915Z,80.20
2018-10-21T20:36:45.182Z,80.30
2018-10-21T20:41:48.210Z,80.70
2018-10-21T20:44:16.592Z,81.00
2018-10-21T20:46:44.928Z,81.20
2018-10-21T20:49:13.229Z,81.40
2018-10-21T20:51:41.794Z,81.50
2018-10-21T20:54:09.902Z,81.60
2018-10-21T20:56:38.208Z,81.50
2018-10-21T20:59:06.541Z,81.50
2018-10-21T21:01:34.856Z,81.60
2018-10-21T21:04:03.296Z,81.60
2018-10-21T21:06:31.653Z,81.50
2018-10-21T21:09:00.511Z,81.40
2018-10-21T21:11:28.918Z,81.40
2018-10-21T21:13:57.223Z,81.30
2018-10-21T21:16:25.546Z,81.10
2018-10-21T21:18:53.852Z,81.20
2018-10-21T21:21:22.174Z,81.20
2018-10-21T21:23:50.475Z,81.50
2018-10-21T21:26:18.797Z,81.60
2018-10-21T21:28:47.094Z,81.50
2018-10-21T21:31:15.429Z,81.60
2018-10-21T21:33:43.724Z,81.70
2018-10-21T21:36:12.116Z,82.00
2018-10-21T21:38:40.362Z,82.00
2018-10-21T21:41:08.693Z,82.10
2018-10-21T21:43:37.024Z,82.00
2018-10-21T21:46:05.704Z,82.20
2018-10-21T21:48:33.995Z,81.70
2018-10-21T21:51:02.338Z,82.20
2018-10-21T21:53:30.649Z,82.40
2018-10-21T21:55:58.981Z,82.00
2018-10-21T21:58:27.284Z,82.20
2018-10-21T22:00:55.609Z,82.10
2018-10-21T22:03:23.912Z,82.20
2018-10-21T22:05:52.223Z,82.60
2018-10-21T22:08:20.784Z,81.70
2018-10-21T22:10:49.107Z,81.60
2018-10-21T22:13:17.405Z,81.60
2018-10-21T22:15:45.747Z,81.80
2018-10-21T22:18:14.077Z,81.80
2018-10-21T22:20:42.383Z,82.10
2018-10-21T22:23:10.700Z,81.60
2018-10-21T22:25:39.004Z,82.40
2018-10-21T22:28:07.436Z,82.40
2018-10-21T22:30:35.697Z,82.80
2018-10-21T22:33:04.129Z,83.40
2018-10-21T22:35:32.433Z,82.60
2018-10-21T22:38:00.820Z,83.10
2018-10-21T22:40:29.092Z,83.10
2018-10-21T22:42:57.413Z,83.50
2018-10-21T22:45:25.729Z,83.70
2018-10-21T22:47:54.082Z,83.80
2018-10-21T22:50:22.385Z,83.90
2018-10-21T22:52:50.717Z,83.90
2018-10-21T22:55:19.020Z,84.40
2018-10-21T22:57:47.340Z,84.80
2018-10-21T23:00:15.677Z,85.10
2018-10-21T23:02:46.885Z,85.20
2018-10-21T23:05:15.180Z,84.90
2018-10-21T23:07:43.503Z,84.80
2018-10-21T23:10:11.820Z,84.70
2018-10-21T23:12:40.143Z,85.20
2018-10-21T23:15:08.468Z,84.80
2018-10-21T23:17:37.548Z,85.00
2018-10-21T23:20:06.936Z,85.10
2018-10-21T23:22:35.264Z,85.40
2018-10-21T23:25:03.582Z,85.70
2018-10-21T23:27:31.899Z,85.50
2018-10-21T23:30:00.211Z,85.60
2018-10-21T23:32:28.545Z,85.80
2018-10-21T23:34:56.844Z,86.30
2018-10-21T23:37:25.159Z,86.30
2018-10-21T23:39:53.462Z,86.20
2018-10-21T23:42:21.780Z,86.10
2018-10-21T23:44:50.077Z,86.10
2018-10-21T23:47:18.409Z,85.90
2018-10-21T23:49:46.713Z,86.00
2018-10-21T23:52:15.093Z,85.70
2018-10-21T23:54:43.372Z,85.80
2018-10-21T23:57:11.705Z,85.80
2018-10-21T23:59:40.003Z,85.80
